createdAt,value
2022-11-03T00:00:50.382Z,83
2022-11-03T00:02:51.241Z,83
2022-11-03T00:04:50.169Z,83
2022-11-03T00:06:50.944Z,82
2022-11-03T00:08:50.282Z,82
2022-11-03T00:10:50.707Z,82
2022-11-03T00:12:50.184Z,82
2022-11-03T00:14:50.601Z,83
2022-11-03T00:16:50.494Z,82
2022-11-03T00:18:50.916Z,82
2022-11-03T00:20:50.479Z,82
2022-11-03T00:22:50.888Z,82
2022-11-03T00:24:50.390Z,82
2022-11-03T00:26:50.052Z,82
2022-11-03T00:28:50.560Z,82
2022-11-03T00:30:50.874Z,82
2022-11-03T00:32:50.323Z,82
2022-11-03T00:34:50.308Z,82
2022-11-03T00:36:50.129Z,82
2022-11-03T00:38:50.564Z,82
2022-11-03T00:40:51.034Z,82
2022-11-03T00:42:50.401Z,82
2022-11-03T00:44:50.945Z,82
2022-11-03T00:46:50.743Z,82
2022-11-03T00:48:50.268Z,82
2022-11-03T00:50:50.607Z,82
2022-11-03T00:52:50.034Z,82
2022-11-03T00:54:55.993Z,82
2022-11-03T00:56:50.727Z,82
2022-11-03T00:58:50.112Z,82
2022-11-03T01:00:50.867Z,82
2022-11-03T01:02:50.288Z,82
2022-11-03T01:04:51.034Z,82
2022-11-03T01:06:51.410Z,82
2022-11-03T01:08:50.877Z,82
2022-11-03T01:10:50.302Z,82
2022-11-03T01:12:50.714Z,82
2022-11-03T01:14:50.170Z,82
2022-11-03T01:16:51.003Z,82
2022-11-03T01:18:50.402Z,82
2022-11-03T01:20:50.985Z,82
2022-11-03T01:22:50.443Z,82
2022-11-03T01:24:50.916Z,82
2022-11-03T01:26:50.799Z,82
2022-11-03T01:28:50.181Z,82
2022-11-03T01:30:50.760Z,82
2022-11-03T01:32:50.120Z,82
2022-11-03T01:34:51.007Z,82
2022-11-03T01:36:50.854Z,82
2022-11-03T01:38:50.323Z,82
2022-11-03T01:40:50.710Z,82
2022-11-03T01:42:50.221Z,82
2022-11-03T01:44:50.642Z,82
2022-11-03T01:46:50.342Z,82
2022-11-03T01:48:50.776Z,82
2022-11-03T01:50:50.308Z,82
2022-11-03T01:52:50.759Z,82
2022-11-03T01:54:50.316Z,82
2022-11-03T01:56:50.120Z,82
2022-11-03T01:58:50.640Z,82
2022-11-03T02:00:50.320Z,82
2022-11-03T02:02:50.849Z,82
2022-11-03T02:04:50.925Z,82
2022-11-03T02:06:50.840Z,82
2022-11-03T02:08:50.201Z,82
2022-11-03T02:10:50.692Z,82
2022-11-03T02:12:50.158Z,82
2022-11-03T02:14:50.601Z,82
2022-11-03T02:16:50.449Z,82
2022-11-03T02:18:50.902Z,82
2022-11-03T02:20:50.546Z,82
2022-11-03T02:22:51.025Z,82
2022-11-03T02:24:54.954Z,82
2022-11-03T02:26:50.634Z,82
2022-11-03T02:28:50.538Z,82
2022-11-03T02:30:51.020Z,82
2022-11-03T02:32:50.453Z,82
2022-11-03T02:34:50.417Z,82
2022-11-03T02:36:50.224Z,82
2022-11-03T02:38:50.636Z,82
2022-11-03T02:40:50.975Z,82
2022-11-03T02:42:50.478Z,82
2022-11-03T02:44:50.928Z,82
2022-11-03T02:46:50.828Z,82
2022-11-03T02:48:50.265Z,82
2022-11-03T02:50:50.862Z,82
2022-11-03T02:52:50.388Z,82
2022-11-03T02:54:51.025Z,82
2022-11-03T02:56:50.840Z,82
2022-11-03T02:58:50.382Z,82
2022-11-03T03:00:51.194Z,82
2022-11-03T03:02:50.689Z,82
2022-11-03T03:04:50.423Z,82
2022-11-03T03:06:50.297Z,82
2022-11-03T03:08:50.518Z,83
2022-11-03T03:10:50.175Z,83
2022-11-03T03:12:50.717Z,82
2022-11-03T03:14:50.260Z,83
2022-11-03T03:16:50.883Z,83
2022-11-03T03:18:50.363Z,83
2022-11-03T03:20:50.719Z,83
2022-11-03T03:22:50.990Z,83
2022-11-03T03:24:50.353Z,83
2022-11-03T03:26:50.163Z,83
2022-11-03T03:28:50.468Z,83
2022-11-03T03:30:50.925Z,83
2022-11-03T03:32:50.355Z,83
2022-11-03T03:34:50.390Z,83
2022-11-03T03:36:50.154Z,83
2022-11-03T03:38:50.594Z,83
2022-11-03T03:40:50.135Z,83
2022-11-03T03:42:50.535Z,83
2022-11-03T03:44:50.984Z,83
2022-11-03T03:46:50.853Z,83
2022-11-03T03:48:50.383Z,83
2022-11-03T03:50:50.808Z,84
2022-11-03T03:52:50.370Z,84
2022-11-03T03:54:50.788Z,84
2022-11-03T03:56:50.879Z,84
2022-11-03T03:58:50.372Z,84
2022-11-03T04:00:51.077Z,84
2022-11-03T04:02:50.550Z,84
2022-11-03T04:04:50.552Z,84
2022-11-03T04:06:50.496Z,84
2022-11-03T04:08:50.919Z,84
2022-11-03T04:10:50.462Z,84
2022-11-03T04:12:50.844Z,84
2022-11-03T04:14:50.409Z,84
2022-11-03T04:16:50.049Z,84
2022-11-03T04:18:50.517Z,84
2022-11-03T04:20:50.848Z,84
2022-11-03T04:22:50.145Z,84
2022-11-03T04:24:50.559Z,84
2022-11-03T04:26:50.434Z,84
2022-11-03T04:28:50.910Z,84
2022-11-03T04:30:59.553Z,84
2022-11-03T04:32:50.175Z,84
2022-11-03T04:34:50.951Z,84
2022-11-03T04:36:50.665Z,84
2022-11-03T04:38:50.324Z,84
2022-11-03T04:40:55.994Z,84
2022-11-03T04:42:50.599Z,84
2022-11-03T04:44:50.183Z,84
2022-11-03T04:46:50.898Z,84
2022-11-03T04:48:50.318Z,84
2022-11-03T04:50:50.828Z,84
2022-11-03T04:52:50.271Z,84
2022-11-03T04:54:50.733Z,84
2022-11-03T04:56:50.657Z,84
2022-11-03T04:58:50.176Z,84
2022-11-03T05:00:50.958Z,84
2022-11-03T05:02:57.059Z,84
2022-11-03T05:04:50.184Z,84
2022-11-03T05:06:51.063Z,84
2022-11-03T05:08:50.535Z,84
2022-11-03T05:10:50.948Z,84
2022-11-03T05:12:50.217Z,84
2022-11-03T05:14:59.512Z,84
2022-11-03T05:16:50.289Z,84
2022-11-03T05:18:51.036Z,84
2022-11-03T05:20:50.513Z,84
2022-11-03T05:22:50.894Z,84
2022-11-03T05:24:50.367Z,84
2022-11-03T05:26:50.112Z,84
2022-11-03T05:28:50.502Z,84
2022-11-03T05:30:50.939Z,84
2022-11-03T05:32:50.263Z,84
2022-11-03T05:34:50.204Z,84
2022-11-03T05:36:50.097Z,84
2022-11-03T05:38:50.713Z,84
2022-11-03T05:40:50.164Z,84
2022-11-03T05:42:50.638Z,84
2022-11-03T05:44:51.023Z,84
2022-11-03T05:46:50.817Z,84
2022-11-03T05:48:50.181Z,84
2022-11-03T05:50:50.728Z,84
2022-11-03T05:52:50.085Z,84
2022-11-03T05:54:50.515Z,84
2022-11-03T05:56:50.174Z,84
2022-11-03T05:58:50.617Z,84
2022-11-03T06:00:50.105Z,84
2022-11-03T06:02:50.919Z,84
2022-11-03T06:04:50.817Z,84
2022-11-03T06:06:50.454Z,84
2022-11-03T06:08:50.078Z,84
2022-11-03T06:10:50.536Z,84
2022-11-03T06:12:51.060Z,84
2022-11-03T06:14:50.432Z,84
2022-11-03T06:16:50.286Z,84
2022-11-03T06:18:50.742Z,84
2022-11-03T06:20:50.237Z,84
2022-11-03T06:22:50.784Z,84
2022-11-03T06:24:50.229Z,84
2022-11-03T06:26:50.039Z,84
2022-11-03T06:28:50.503Z,84
2022-11-03T06:30:52.791Z,84
2022-11-03T06:32:50.177Z,84
2022-11-03T06:34:51.066Z,84
2022-11-03T06:36:50.845Z,84
2022-11-03T06:38:50.445Z,84
2022-11-03T06:40:50.877Z,84
2022-11-03T06:42:50.437Z,84
2022-11-03T06:44:50.999Z,84
2022-11-03T06:46:50.847Z,84
2022-11-03T06:48:50.325Z,84
2022-11-03T06:50:50.865Z,84
2022-11-03T06:52:50.541Z,84
2022-11-03T06:54:50.187Z,84
2022-11-03T06:56:51.000Z,84
2022-11-03T06:58:50.551Z,84
2022-11-03T07:00:56.656Z,84
2022-11-03T07:02:50.374Z,84
2022-11-03T07:04:50.379Z,84
2022-11-03T07:06:54.333Z,84
2022-11-03T07:08:50.848Z,84
2022-11-03T07:10:50.358Z,84
2022-11-03T07:12:50.787Z,84
2022-11-03T07:14:50.351Z,84
2022-11-03T07:16:50.267Z,84
2022-11-03T07:18:50.884Z,84
2022-11-03T07:20:50.361Z,84
2022-11-03T07:22:50.880Z,84
2022-11-03T07:24:50.343Z,84
2022-11-03T07:26:50.271Z,84
2022-11-03T07:28:50.709Z,84
2022-11-03T07:30:50.267Z,84
2022-11-03T07:32:50.764Z,84
2022-11-03T07:34:50.688Z,84
2022-11-03T07:36:56.908Z,84
2022-11-03T07:38:50.636Z,84
2022-11-03T07:40:51.034Z,84
2022-11-03T07:42:50.585Z,84
2022-11-03T07:44:51.051Z,85
2022-11-03T07:46:50.791Z,85
2022-11-03T07:48:50.163Z,84
2022-11-03T07:50:50.720Z,84
2022-11-03T07:52:50.162Z,85
2022-11-03T07:54:50.753Z,85
2022-11-03T07:56:50.544Z,85
2022-11-03T07:58:50.219Z,85
2022-11-03T08:00:50.696Z,85
2022-11-03T08:02:50.784Z,85
2022-11-03T08:04:50.734Z,85
2022-11-03T08:06:50.620Z,85
2022-11-03T08:08:50.991Z,85
2022-11-03T08:10:50.321Z,85
2022-11-03T08:12:50.768Z,85
2022-11-03T08:14:50.324Z,85
2022-11-03T08:16:50.100Z,85
2022-11-03T08:18:50.573Z,85
2022-11-03T08:20:51.031Z,85
2022-11-03T08:23:26.694Z,85
2022-11-03T08:24:50.893Z,85
2022-11-03T08:26:50.600Z,85
2022-11-03T08:28:50.160Z,85
2022-11-03T08:30:50.547Z,85
2022-11-03T08:32:51.034Z,85
2022-11-03T08:34:50.189Z,85
2022-11-03T08:36:50.960Z,85
2022-11-03T08:38:50.483Z,85
2022-11-03T08:40:55.862Z,85
2022-11-03T08:42:50.395Z,84
2022-11-03T08:44:50.919Z,84
2022-11-03T08:46:50.603Z,84
2022-11-03T08:48:50.093Z,84
2022-11-03T08:50:50.499Z,84
2022-11-03T08:52:50.970Z,84
2022-11-03T08:54:50.842Z,84
2022-11-03T08:56:50.734Z,84
2022-11-03T08:58:50.175Z,84
2022-11-03T09:00:50.703Z,84
2022-11-03T09:02:50.160Z,83
2022-11-03T09:04:50.117Z,83
2022-11-03T09:06:50.931Z,83
2022-11-03T09:10:50.511Z,83
2022-11-03T09:12:51.014Z,83
2022-11-03T09:14:50.919Z,83
2022-11-03T09:16:51.161Z,83
2022-11-03T09:18:50.719Z,83
2022-11-03T09:20:50.368Z,83
2022-11-03T09:22:50.883Z,83
2022-11-03T09:24:50.485Z,82
2022-11-03T09:26:50.414Z,82
2022-11-03T09:28:50.959Z,82
2022-11-03T09:30:50.353Z,82
2022-11-03T09:32:50.953Z,82
2022-11-03T09:34:50.379Z,82
2022-11-03T09:36:53.917Z,82
2022-11-03T09:38:50.488Z,82
2022-11-03T09:40:50.889Z,80
2022-11-03T09:42:50.410Z,80
2022-11-03T09:44:50.865Z,80
2022-11-03T09:46:59.451Z,80
2022-11-03T09:48:50.077Z,80
2022-11-03T09:50:50.673Z,80
2022-11-03T09:52:52.364Z,80
2022-11-03T09:54:51.039Z,80
2022-11-03T09:56:50.849Z,80
2022-11-03T09:58:55.320Z,79
2022-11-03T10:00:51.103Z,79
2022-11-03T10:02:50.561Z,78
2022-11-03T10:04:50.548Z,78
2022-11-03T10:06:50.362Z,78
2022-11-03T10:08:50.934Z,78
2022-11-03T10:10:50.456Z,78
2022-11-03T10:12:51.031Z,78
2022-11-03T10:14:50.468Z,78
2022-11-03T10:16:54.166Z,77
2022-11-03T10:18:50.700Z,77
2022-11-03T10:20:50.251Z,76
2022-11-03T10:22:50.719Z,77
2022-11-03T10:24:50.260Z,77
2022-11-03T10:26:50.081Z,75
2022-11-03T10:28:50.631Z,75
2022-11-03T10:31:13.810Z,75
2022-11-03T10:32:50.929Z,75
2022-11-03T10:34:50.929Z,75
2022-11-03T10:36:51.325Z,75
2022-11-03T10:38:50.853Z,75
2022-11-03T10:40:50.685Z,74
2022-11-03T10:42:50.197Z,74
2022-11-03T10:44:50.706Z,74
2022-11-03T10:46:52.452Z,74
2022-11-03T10:48:50.999Z,74
2022-11-03T10:50:50.526Z,74
2022-11-03T10:52:51.111Z,73
2022-11-03T10:54:50.638Z,73
2022-11-03T10:56:50.748Z,73
2022-11-03T10:58:50.819Z,73
2022-11-03T11:00:50.717Z,74
2022-11-03T11:02:50.326Z,74
2022-11-03T11:04:50.354Z,73
2022-11-03T11:06:50.238Z,73
2022-11-03T11:08:50.680Z,72
2022-11-03T11:10:50.204Z,72
2022-11-03T11:12:50.693Z,73
2022-11-03T11:14:50.190Z,72
2022-11-03T11:16:50.948Z,72
2022-11-03T11:18:50.342Z,72
2022-11-03T11:20:50.893Z,72
2022-11-03T11:22:50.407Z,71
2022-11-03T11:24:50.918Z,71
2022-11-03T11:26:50.719Z,71
2022-11-03T11:28:50.234Z,71
2022-11-03T11:30:50.652Z,71
2022-11-03T11:32:50.266Z,71
2022-11-03T11:34:50.238Z,71
2022-11-03T11:36:50.035Z,70
2022-11-03T11:38:50.534Z,70
2022-11-03T11:40:50.113Z,71
2022-11-03T11:42:50.632Z,70
2022-11-03T11:44:50.125Z,70
2022-11-03T11:46:50.080Z,69
2022-11-03T11:48:50.504Z,69
2022-11-03T11:50:50.923Z,70
2022-11-03T11:52:50.516Z,70
2022-11-03T11:54:50.957Z,69
2022-11-03T11:56:50.784Z,69
2022-11-03T11:58:50.224Z,69
2022-11-03T12:00:50.654Z,68
2022-11-03T12:02:50.103Z,68
2022-11-03T12:04:50.974Z,68
2022-11-03T12:06:50.865Z,68
2022-11-03T12:08:50.428Z,68
2022-11-03T12:10:51.112Z,68
2022-11-03T12:12:50.572Z,68
2022-11-03T12:14:50.081Z,68
2022-11-03T12:16:50.829Z,68
2022-11-03T12:18:51.245Z,68
2022-11-03T12:20:50.877Z,68
2022-11-03T12:22:50.537Z,68
2022-11-03T12:24:51.009Z,68
2022-11-03T12:26:50.890Z,68
2022-11-03T12:28:50.377Z,68
2022-11-03T12:30:51.345Z,68
2022-11-03T12:32:50.837Z,67
2022-11-03T12:34:50.750Z,67
2022-11-03T12:36:56.995Z,67
2022-11-03T12:38:50.429Z,67
2022-11-03T12:40:50.896Z,67
2022-11-03T12:42:50.324Z,67
2022-11-03T12:44:50.708Z,68
2022-11-03T12:46:50.593Z,67
2022-11-03T12:48:51.035Z,67
2022-11-03T12:50:50.546Z,67
2022-11-03T12:52:50.036Z,67
2022-11-03T12:54:50.584Z,67
2022-11-03T12:56:50.367Z,67
2022-11-03T12:58:50.919Z,67
2022-11-03T13:01:02.645Z,68
2022-11-03T13:02:51.497Z,68
2022-11-03T13:04:50.460Z,68
2022-11-03T13:06:50.261Z,67
2022-11-03T13:08:53.891Z,67
2022-11-03T13:10:50.289Z,68
2022-11-03T13:12:50.738Z,68
2022-11-03T13:14:50.121Z,68
2022-11-03T13:16:51.069Z,67
2022-11-03T13:18:50.481Z,68
2022-11-03T13:20:50.976Z,67
2022-11-03T13:22:50.778Z,68
2022-11-03T13:24:50.144Z,68
2022-11-03T13:26:50.941Z,68
2022-11-03T13:28:50.434Z,68
2022-11-03T13:30:50.934Z,68
2022-11-03T13:32:50.641Z,68
2022-11-03T13:34:50.672Z,68
2022-11-03T13:36:50.616Z,68
2022-11-03T13:38:50.177Z,68
2022-11-03T13:41:09.478Z,68
2022-11-03T13:42:51.032Z,68
2022-11-03T13:44:50.847Z,69
2022-11-03T13:46:50.680Z,69
2022-11-03T13:50:12.842Z,69
2022-11-03T13:50:51.494Z,68
2022-11-03T13:52:52.489Z,68
2022-11-03T13:55:43.611Z,68
2022-11-03T14:00:51.156Z,69
2022-11-03T14:04:50.546Z,69
2022-11-03T14:06:50.372Z,69
2022-11-03T14:08:50.839Z,69
2022-11-03T14:10:50.207Z,69
2022-11-03T14:12:50.588Z,69
2022-11-03T14:14:50.087Z,69
2022-11-03T14:16:51.383Z,69
2022-11-03T14:18:50.303Z,69
2022-11-03T14:20:50.139Z,69
2022-11-03T14:22:51.364Z,70
2022-11-03T14:24:50.835Z,70
2022-11-03T14:26:50.056Z,70
2022-11-03T14:28:50.995Z,70
2022-11-03T14:30:50.402Z,70
2022-11-03T14:33:06.806Z,70
2022-11-03T14:34:51.014Z,70
2022-11-03T14:36:51.173Z,70
2022-11-03T14:38:50.744Z,70
2022-11-03T14:40:50.540Z,70
2022-11-03T14:42:50.924Z,70
2022-11-03T14:44:50.840Z,71
2022-11-03T14:46:50.821Z,71
2022-11-03T14:48:50.463Z,71
2022-11-03T14:50:50.825Z,71
2022-11-03T14:52:50.566Z,71
2022-11-03T14:54:50.088Z,71
2022-11-03T14:56:50.987Z,71
2022-11-03T14:58:50.945Z,71
2022-11-03T15:00:50.637Z,71
2022-11-03T15:02:50.219Z,71
2022-11-03T15:04:51.057Z,71
2022-11-03T15:06:50.713Z,71
2022-11-03T15:08:57.408Z,71
2022-11-03T15:10:50.955Z,72
2022-11-03T15:12:50.609Z,72
2022-11-03T15:14:50.504Z,72
2022-11-03T15:16:51.055Z,72
2022-11-03T15:18:50.453Z,72
2022-11-03T15:20:51.107Z,72
2022-11-03T15:26:50.558Z,73
2022-11-03T15:28:50.966Z,73
2022-11-03T15:30:50.470Z,73
2022-11-03T15:32:50.870Z,73
2022-11-03T15:34:51.043Z,73
2022-11-03T15:36:50.928Z,73
2022-11-03T15:38:50.146Z,73
2022-11-03T15:40:50.631Z,73
2022-11-03T15:42:50.074Z,73
2022-11-03T15:44:50.484Z,73
2022-11-03T15:46:50.395Z,73
2022-11-03T15:48:50.861Z,73
2022-11-03T15:50:50.357Z,73
2022-11-03T15:52:50.944Z,73
2022-11-03T15:54:50.505Z,73
2022-11-03T15:56:50.353Z,73
2022-11-03T15:58:50.875Z,73
2022-11-03T16:00:50.600Z,73
2022-11-03T16:02:51.283Z,74
2022-11-03T16:04:50.310Z,74
2022-11-03T16:07:09.299Z,74
2022-11-03T16:08:50.152Z,74
2022-11-03T16:10:58.799Z,74
2022-11-03T16:12:50.260Z,74
2022-11-03T16:14:50.670Z,74
2022-11-03T16:16:50.678Z,75
2022-11-03T16:18:50.138Z,75
2022-11-03T16:20:50.601Z,75
2022-11-03T16:22:50.289Z,75
2022-11-03T16:24:51.039Z,75
2022-11-03T16:26:51.042Z,75
2022-11-03T16:28:50.538Z,75
2022-11-03T16:30:55.249Z,75
2022-11-03T16:32:50.756Z,75
2022-11-03T16:34:50.746Z,76
2022-11-03T16:36:50.448Z,76
2022-11-03T16:38:51.044Z,75
2022-11-03T16:40:50.465Z,76
2022-11-03T16:42:50.084Z,76
2022-11-03T16:44:50.575Z,76
2022-11-03T16:46:50.523Z,76
2022-11-03T16:48:51.326Z,76
2022-11-03T16:50:57.241Z,76
2022-11-03T16:52:50.736Z,76
2022-11-03T16:54:50.206Z,77
2022-11-03T16:56:55.545Z,77
2022-11-03T16:58:51.034Z,76
2022-11-03T17:00:50.741Z,76
2022-11-03T17:02:50.412Z,76
2022-11-03T17:04:50.351Z,76
2022-11-03T17:06:50.167Z,76
2022-11-03T17:08:54.344Z,76
2022-11-03T17:10:50.732Z,76
2022-11-03T17:12:50.382Z,76
2022-11-03T17:14:57.407Z,76
2022-11-03T17:16:50.176Z,76
2022-11-03T17:18:50.526Z,76
2022-11-03T17:20:51.000Z,76
2022-11-03T17:22:50.489Z,77
2022-11-03T17:24:50.990Z,78
2022-11-03T17:26:50.890Z,78
2022-11-03T17:28:50.438Z,78
2022-11-03T17:30:50.863Z,78
2022-11-03T17:32:50.345Z,77
2022-11-03T17:34:50.434Z,78
2022-11-03T17:36:50.400Z,78
2022-11-03T17:38:50.848Z,77
2022-11-03T17:40:50.408Z,77
2022-11-03T17:42:50.812Z,78
2022-11-03T17:44:50.426Z,78
2022-11-03T17:46:50.253Z,78
2022-11-03T17:48:50.746Z,78
2022-11-03T17:50:50.242Z,78
2022-11-03T17:52:50.860Z,78
2022-11-03T17:54:50.316Z,78
2022-11-03T17:56:50.084Z,78
2022-11-03T17:58:50.538Z,78
2022-11-03T18:00:51.313Z,78
2022-11-03T18:02:50.874Z,78
2022-11-03T18:04:50.743Z,78
2022-11-03T18:06:50.634Z,78
2022-11-03T18:08:50.363Z,78
2022-11-03T18:10:50.814Z,78
2022-11-03T18:12:50.414Z,79
2022-11-03T18:14:50.903Z,78
2022-11-03T18:16:50.774Z,78
2022-11-03T18:18:50.407Z,78
2022-11-03T18:20:54.397Z,78
2022-11-03T18:22:50.824Z,79
2022-11-03T18:24:50.419Z,79
2022-11-03T18:26:50.346Z,79
2022-11-03T18:28:51.064Z,79
2022-11-03T18:30:50.563Z,79
2022-11-03T18:32:50.134Z,79
2022-11-03T18:34:50.957Z,79
2022-11-03T18:36:50.844Z,79
2022-11-03T18:38:50.519Z,79
2022-11-03T18:40:50.957Z,79
2022-11-03T18:42:50.539Z,79
2022-11-03T18:44:51.010Z,79
2022-11-03T18:46:50.825Z,79
2022-11-03T18:48:50.278Z,79
2022-11-03T18:50:50.866Z,79
2022-11-03T18:52:50.304Z,79
2022-11-03T18:54:50.874Z,79
2022-11-03T18:56:50.715Z,79
2022-11-03T18:58:50.385Z,79
2022-11-03T19:00:50.513Z,79
2022-11-03T19:02:51.072Z,79
2022-11-03T19:04:50.104Z,79
2022-11-03T19:06:51.057Z,79
2022-11-03T19:08:50.653Z,79
2022-11-03T19:10:50.192Z,79
2022-11-03T19:12:50.709Z,79
2022-11-03T19:14:50.143Z,79
2022-11-03T19:17:24.734Z,79
2022-11-03T19:18:50.978Z,79
2022-11-03T19:20:50.665Z,79
2022-11-03T19:22:50.136Z,79
2022-11-03T19:24:50.782Z,79
2022-11-03T19:26:50.704Z,79
2022-11-03T19:28:50.164Z,79
2022-11-03T19:30:58.547Z,79
2022-11-03T19:32:51.014Z,79
2022-11-03T19:34:50.806Z,80
2022-11-03T19:36:50.759Z,80
2022-11-03T19:38:50.223Z,80
2022-11-03T19:40:50.631Z,80
2022-11-03T19:42:50.154Z,80
2022-11-03T19:44:50.531Z,80
2022-11-03T19:46:50.326Z,80
2022-11-03T19:48:50.719Z,80
2022-11-03T19:50:50.245Z,80
2022-11-03T19:52:50.669Z,80
2022-11-03T19:54:50.172Z,80
2022-11-03T19:56:50.878Z,80
2022-11-03T19:58:50.419Z,80
2022-11-03T20:00:51.382Z,80
2022-11-03T20:02:50.969Z,80
2022-11-03T20:04:51.011Z,80
2022-11-03T20:06:50.870Z,80
2022-11-03T20:08:50.400Z,80
2022-11-03T20:10:51.060Z,80
2022-11-03T20:12:50.532Z,80
2022-11-03T20:14:50.144Z,80
2022-11-03T20:16:50.961Z,80
2022-11-03T20:18:50.560Z,80
2022-11-03T20:20:50.107Z,80
2022-11-03T20:22:50.655Z,80
2022-11-03T20:24:50.149Z,80
2022-11-03T20:26:50.907Z,80
2022-11-03T20:28:50.473Z,80
2022-11-03T20:30:50.853Z,80
2022-11-03T20:32:50.402Z,80
2022-11-03T20:34:50.512Z,80
2022-11-03T20:36:50.373Z,80
2022-11-03T20:38:50.871Z,80
2022-11-03T20:40:50.411Z,80
2022-11-03T20:42:50.931Z,80
2022-11-03T20:44:50.369Z,80
2022-11-03T20:46:50.134Z,80
2022-11-03T20:48:50.608Z,80
2022-11-03T20:50:50.137Z,80
2022-11-03T20:52:50.532Z,80
2022-11-03T20:54:51.027Z,80
2022-11-03T20:56:50.968Z,81
2022-11-03T20:58:50.497Z,81
2022-11-03T21:00:51.561Z,80
2022-11-03T21:02:50.195Z,80
2022-11-03T21:04:50.373Z,81
2022-11-03T21:06:50.175Z,81
2022-11-03T21:08:50.568Z,81
2022-11-03T21:10:51.056Z,81
2022-11-03T21:12:50.449Z,81
2022-11-03T21:14:50.982Z,81
2022-11-03T21:16:50.609Z,81
2022-11-03T21:18:50.163Z,81
2022-11-03T21:20:50.724Z,81
2022-11-03T21:22:55.083Z,81
2022-11-03T21:24:50.702Z,81
2022-11-03T21:26:50.663Z,81
2022-11-03T21:28:50.231Z,81
2022-11-03T21:30:50.778Z,81
2022-11-03T21:32:50.294Z,81
2022-11-03T21:34:50.389Z,81
2022-11-03T21:36:50.340Z,81
2022-11-03T21:38:50.959Z,81
2022-11-03T21:40:56.951Z,82
2022-11-03T21:42:50.448Z,82
2022-11-03T21:44:51.020Z,81
2022-11-03T21:46:50.670Z,81
2022-11-03T21:48:50.209Z,81
2022-11-03T21:50:50.514Z,81
2022-11-03T21:52:50.057Z,81
2022-11-03T21:54:50.454Z,81
2022-11-03T21:56:50.233Z,81
2022-11-03T21:58:50.681Z,81
2022-11-03T22:00:50.666Z,81
2022-11-03T22:02:50.298Z,81
2022-11-03T22:04:50.165Z,81
2022-11-03T22:06:50.856Z,81
2022-11-03T22:08:50.339Z,81
2022-11-03T22:10:50.709Z,81
2022-11-03T22:12:50.143Z,81
2022-11-03T22:14:50.591Z,81
2022-11-03T22:16:50.908Z,81
2022-11-03T22:18:50.442Z,81
2022-11-03T22:20:50.939Z,81
2022-11-03T22:22:50.486Z,81
2022-11-03T22:24:50.818Z,81
2022-11-03T22:26:50.619Z,81
2022-11-03T22:28:51.054Z,81
2022-11-03T22:30:50.577Z,81
2022-11-03T22:32:50.961Z,81
2022-11-03T22:34:50.851Z,81
2022-11-03T22:36:50.653Z,81
2022-11-03T22:38:50.312Z,81
2022-11-03T22:40:50.682Z,81
2022-11-03T22:42:50.361Z,81
2022-11-03T22:44:50.758Z,81
2022-11-03T22:46:50.521Z,81
2022-11-03T22:48:51.001Z,81
2022-11-03T22:50:50.543Z,81
2022-11-03T22:52:51.000Z,81
2022-11-03T22:54:50.697Z,81
2022-11-03T22:56:50.491Z,81
2022-11-03T22:58:50.089Z,81
2022-11-03T23:00:50.907Z,81
2022-11-03T23:02:50.480Z,81
2022-11-03T23:04:50.703Z,81
2022-11-03T23:06:50.558Z,81
2022-11-03T23:08:50.971Z,81
2022-11-03T23:10:50.353Z,81
2022-11-03T23:12:50.815Z,81
2022-11-03T23:14:50.199Z,81
2022-11-03T23:16:51.016Z,81
2022-11-03T23:18:50.457Z,81
2022-11-03T23:20:51.057Z,81
2022-11-03T23:22:50.484Z,81
2022-11-03T23:24:51.143Z,81
2022-11-03T23:26:50.920Z,81
2022-11-03T23:28:50.483Z,81
2022-11-03T23:30:50.968Z,81
2022-11-03T23:32:50.523Z,81
2022-11-03T23:34:50.483Z,81
2022-11-03T23:36:50.290Z,81
2022-11-03T23:38:50.657Z,81
2022-11-03T23:40:50.121Z,81
2022-11-03T23:42:50.566Z,81
2022-11-03T23:44:50.994Z,81
2022-11-03T23:46:50.725Z,81
2022-11-03T23:48:50.140Z,81
2022-11-03T23:50:50.671Z,81
2022-11-03T23:52:50.184Z,81
2022-11-03T23:54:50.680Z,81
2022-11-03T23:56:50.505Z,81
2022-11-03T23:58:51.032Z,81
